Time;durP1;ratioP1;P1;durP2;ratioP2;P2;SDS_P1;SDS_P2;PMS_P1;PMS_P2;Temp;Humidity;BMP_temperature;BMP_pressure;BME280_temperature;BME280_humidity;BME280_pressure;Samples;Min_cycle;Max_cycle;Signal;HPM_P1;HPM_P2
2021/04/29 00:02:27;;;;;;;4.53;2.90;;;13.30;99.90;;;14.51;54.82;98972.50;4804549;29;20086;-80
2021/04/29 00:04:53;;;;;;;5.07;3.42;;;13.30;99.90;;;14.50;55.34;98962.50;4790968;29;20039;-81
2021/04/29 00:07:19;;;;;;;4.00;3.13;;;13.30;99.90;;;14.59;54.96;98967.56;4793278;29;20058;-78
2021/04/29 00:09:47;;;;;;;5.20;2.83;;;13.30;99.90;;;14.46;55.62;98960.97;4793495;29;20038;-82
2021/04/29 00:12:13;;;;;;;5.07;3.30;;;13.20;99.90;;;14.43;56.30;98961.81;4809377;29;20348;-82
2021/04/29 00:14:39;;;;;;;5.45;3.15;;;13.20;99.90;;;14.33;56.76;98962.72;4793028;29;20122;-81
2021/04/29 00:17:06;;;;;;;5.32;3.53;;;13.20;99.90;;;14.35;56.53;98957.53;4792228;29;20062;-83
2021/04/29 00:19:32;;;;;;;4.40;2.75;;;13.20;99.90;;;14.20;57.40;98954.09;4793086;29;20091;-83
2021/04/29 00:21:59;;;;;;;6.40;3.58;;;13.20;99.90;;;14.30;56.92;98958.75;4792394;29;20039;-81
2021/04/29 00:24:25;;;;;;;7.07;3.10;;;13.10;99.90;;;14.40;57.22;98955.03;4792580;29;20042;-82
2021/04/29 00:26:52;;;;;;;5.90;3.35;;;13.10;99.90;;;14.29;57.28;98953.59;4792762;29;20381;-82
2021/04/29 00:29:20;;;;;;;5.18;3.40;;;13.10;99.90;;;14.29;57.68;98971.19;4807682;29;20026;-83
2021/04/29 00:31:46;;;;;;;10.30;3.60;;;13.00;99.90;;;14.26;57.53;98955.19;4792599;29;20058;-81
2021/04/29 00:34:16;;;;;;;4.70;3.25;;;13.00;99.90;;;14.16;57.83;98956.94;4792759;29;20039;-80
2021/04/29 00:36:42;;;;;;;8.75;3.45;;;13.10;99.90;;;14.25;57.67;98968.44;4792723;29;20464;-83
2021/04/29 00:39:08;;;;;;;6.45;3.40;;;13.00;99.90;;;14.17;57.76;98952.13;4792885;29;20050;-82
2021/04/29 00:41:34;;;;;;;5.20;2.92;;;13.10;99.90;;;14.19;58.14;98955.34;4793008;29;20034;-82
2021/04/29 00:44:01;;;;;;;9.07;3.60;;;13.00;99.90;;;14.25;57.75;98957.22;4793072;29;20030;-81
2021/04/29 00:46:35;;;;;;;8.93;3.47;;;13.00;99.90;;;14.19;58.20;98964.53;4792391;29;20039;-81
2021/04/29 00:49:03;;;;;;;5.47;3.75;;;13.00;99.90;;;14.21;57.76;98967.72;4791836;29;20148;-83
2021/04/29 00:51:29;;;;;;;4.70;2.83;;;13.00;99.90;;;14.18;58.02;98970.56;4807976;29;20031;-82
2021/04/29 00:53:55;;;;;;;4.97;2.78;;;12.90;99.90;;;14.27;57.78;98968.03;4796302;29;20062;-80
2021/04/29 00:56:23;;;;;;;9.40;3.13;;;12.90;99.90;;;14.16;57.85;98958.94;4792850;29;20049;-81
2021/04/29 00:58:52;;;;;;;5.82;2.95;;;12.90;99.90;;;14.10;57.82;98960.66;4810139;29;20504;-79
2021/04/29 01:01:22;;;;;;;3.75;2.55;;;12.90;99.90;;;14.14;57.76;98962.19;4810612;29;20356;-81
2021/04/29 01:04:06;;;;;;;6.47;2.65;;;13.00;99.90;;;14.26;57.81;98975.66;4795188;29;20038;-82
2021/04/29 01:06:48;;;;;;;3.80;2.90;;;12.90;99.90;;;14.17;57.74;98966.97;4794590;29;20042;-83
2021/04/29 01:09:35;;;;;;;4.93;3.00;;;12.90;99.90;;;14.22;57.96;98977.72;4794133;29;20038;-82
2021/04/29 01:12:20;;;;;;;4.00;2.70;;;12.80;99.90;;;14.11;57.85;98974.28;4801818;29;20047;-81
2021/04/29 01:14:58;;;;;;;4.57;2.70;;;12.80;99.90;;;14.07;57.37;98967.91;4794164;29;20035;-80
2021/04/29 01:17:28;;;;;;;4.35;2.63;;;12.80;99.90;;;14.14;57.46;98973.44;4812200;29;20133;-79
2021/04/29 01:20:12;;;;;;;3.80;2.40;;;12.80;99.90;;;14.23;57.50;98976.50;4809681;29;20179;-82
2021/04/29 01:23:02;;;;;;;4.90;3.35;;;12.80;99.90;;;13.98;57.65;98967.63;4808989;29;20041;-81
2021/04/29 01:25:34;;;;;;;4.10;2.50;;;12.70;99.90;;;14.07;57.59;98975.53;4800000;29;20031;-83
2021/04/29 01:28:04;;;;;;;5.00;2.72;;;12.70;99.90;;;13.93;57.73;98976.53;4794555;29;20523;-80
2021/04/29 01:30:33;;;;;;;6.07;2.60;;;12.70;99.90;;;13.99;57.91;98977.66;4798047;29;20054;-80
2021/04/29 01:33:03;;;;;;;4.38;2.70;;;12.60;99.90;;;13.96;57.84;98980.50;4812913;29;20031;-81
2021/04/29 01:35:30;;;;;;;3.28;2.22;;;12.60;99.90;;;13.92;57.92;98980.56;4795082;29;20480;-86
2021/04/29 01:37:57;;;;;;;3.45;2.47;;;12.60;99.90;;;13.88;58.24;98990.22;4813248;29;20034;-89
2021/04/29 01:40:24;;;;;;;5.22;3.17;;;12.50;99.90;;;13.89;58.41;98977.78;4800147;29;20035;-83
2021/04/29 01:42:50;;;;;;;3.85;2.58;;;12.60;99.90;;;13.93;58.27;98984.16;4806226;29;20031;-87
2021/04/29 01:45:16;;;;;;;3.63;2.58;;;12.60;99.90;;;13.98;58.19;98978.88;4808100;29;20039;-83
2021/04/29 01:47:43;;;;;;;5.10;2.90;;;12.50;99.90;;;13.87;58.10;98975.38;4791538;29;20066;-84
2021/04/29 01:50:12;;;;;;;6.18;2.80;;;12.50;99.90;;;13.85;58.39;98991.06;4790409;29;20031;-85
2021/04/29 01:52:42;;;;;;;4.57;2.60;;;12.50;99.90;;;13.91;58.04;98986.56;4807378;29;20118;-86
2021/04/29 01:55:10;;;;;;;5.30;2.88;;;12.50;99.90;;;13.93;58.37;98976.53;4791820;29;20035;-87
2021/04/29 01:57:37;;;;;;;4.85;2.42;;;12.50;99.90;;;14.01;57.70;98985.63;4791586;29;20091;-87
2021/04/29 02:00:09;;;;;;;6.07;3.10;;;12.50;99.90;;;13.86;58.68;98973.03;4807541;29;20564;-83
2021/04/29 02:02:36;;;;;;;4.15;2.63;;;12.50;99.90;;;13.86;58.38;98976.63;4790763;29;20031;-84
2021/04/29 02:05:06;;;;;;;3.13;2.65;;;12.50;99.90;;;13.89;58.36;98983.41;4791393;29;20034;-86
2021/04/29 02:07:32;;;;;;;4.43;2.67;;;12.40;99.90;;;13.89;58.36;98987.00;4807387;29;20031;-84
2021/04/29 02:09:58;;;;;;;6.20;3.03;;;12.40;99.90;;;13.84;58.75;98990.25;4806373;29;20054;-85
2021/04/29 02:12:24;;;;;;;4.40;2.53;;;12.30;99.90;;;13.74;59.07;98985.59;4789020;29;20472;-85
2021/04/29 02:15:01;;;;;;;3.58;2.78;;;12.30;99.90;;;13.80;58.93;98995.16;4806270;29;20035;-86
2021/04/29 02:17:57;;;;;;;6.10;3.00;;;12.30;99.90;;;13.87;58.85;98992.22;4794347;29;20034;-84
2021/04/29 02:20:25;;;;;;;4.18;2.05;;;12.30;99.90;;;13.83;58.41;98985.09;4791380;29;20057;-84
2021/04/29 02:22:52;;;;;;;6.45;2.63;;;12.20;99.90;;;13.74;59.45;98991.22;4806123;29;20066;-86
2021/04/29 02:25:28;;;;;;;3.55;2.67;;;12.20;99.90;;;13.74;59.10;98991.97;4804860;29;20039;-84
2021/04/29 02:27:58;;;;;;;4.63;2.65;;;12.20;99.90;;;13.68;59.35;98990.84;4788070;29;20118;-82
2021/04/29 02:30:26;;;;;;;4.78;2.88;;;12.10;99.90;;;13.67;59.24;98994.09;4805658;29;20069;-82
2021/04/29 02:32:53;;;;;;;5.55;3.33;;;12.10;99.90;;;13.58;59.24;98979.78;4804961;29;20042;-87
2021/04/29 02:35:19;;;;;;;4.78;2.95;;;12.20;99.90;;;13.61;58.92;98990.16;4805624;29;20036;-84
2021/04/29 02:37:50;;;;;;;4.82;2.97;;;12.10;99.90;;;13.64;58.84;98992.94;4804130;29;20052;-84
2021/04/29 02:40:36;;;;;;;5.72;3.20;;;12.10;99.90;;;13.68;58.85;98990.06;4806171;29;20087;-83
2021/04/29 02:43:02;;;;;;;4.85;2.70;;;12.20;99.90;;;13.74;58.45;98994.03;4806038;29;20031;-86
2021/04/29 02:45:28;;;;;;;7.65;2.65;;;12.20;99.90;;;13.77;58.57;98992.38;4789250;29;20038;-86
2021/04/29 02:47:56;;;;;;;5.13;3.08;;;12.20;99.90;;;13.67;59.12;98994.09;4804078;29;20061;-83
2021/04/29 02:50:25;;;;;;;6.13;3.00;;;12.30;99.90;;;13.68;59.43;98998.47;4789475;29;20079;-86
2021/04/29 02:52:52;;;;;;;6.25;3.38;;;12.20;99.90;;;13.65;59.54;98999.31;4789047;29;20050;-86
2021/04/29 02:55:22;;;;;;;5.68;2.90;;;12.10;99.90;;;13.63;59.58;99001.75;4788699;29;20057;-84
2021/04/29 02:57:49;;;;;;;7.45;3.08;;;12.10;99.90;;;13.58;59.27;98999.41;4789467;29;20459;-85
2021/04/29 03:00:18;;;;;;;7.18;3.50;;;12.00;99.90;;;13.56;59.42;99002.63;4805591;29;20039;-84
2021/04/29 03:02:44;;;;;;;6.75;3.38;;;12.10;99.90;;;13.59;59.99;98995.38;4789602;29;20092;-86
2021/04/29 03:05:14;;;;;;;8.07;3.38;;;12.10;99.90;;;13.58;59.68;98991.00;4789114;29;20228;-84
2021/04/29 03:07:42;;;;;;;4.93;2.88;;;12.10;99.90;;;13.58;60.11;98993.81;4789150;29;20038;-83
2021/04/29 03:10:12;;;;;;;5.57;3.45;;;12.10;99.90;;;13.59;59.62;98992.56;4789243;29;20438;-85
2021/04/29 03:12:39;;;;;;;6.07;3.28;;;12.10;99.90;;;13.61;59.85;98987.34;4789612;29;20365;-85
2021/04/29 03:15:08;;;;;;;3.55;2.83;;;12.10;99.90;;;13.53;59.81;98997.06;4805156;29;20034;-85
2021/04/29 03:17:35;;;;;;;7.70;3.28;;;12.00;99.90;;;13.55;60.17;98989.03;4789169;29;20038;-85
2021/04/29 03:20:01;;;;;;;5.63;3.63;;;12.00;99.90;;;13.48;60.57;98992.72;4788854;29;20038;-86
2021/04/29 03:22:26;;;;;;;5.88;3.25;;;12.00;99.90;;;13.49;61.40;98996.28;4807632;29;20090;-85
2021/04/29 03:24:53;;;;;;;5.95;4.05;;;12.00;99.90;;;13.41;62.32;98994.78;4791521;29;20038;-85
2021/04/29 03:27:19;;;;;;;5.07;3.72;;;11.90;99.90;;;13.25;62.82;98991.75;4807798;29;20401;-86
2021/04/29 03:29:45;;;;;;;6.88;3.45;;;11.90;99.90;;;13.28;63.30;98997.31;4790295;29;20027;-82
2021/04/29 03:32:11;;;;;;;6.63;3.92;;;11.80;99.90;;;13.17;64.23;98982.59;4790198;29;20407;-83
2021/04/29 03:34:37;;;;;;;6.80;4.07;;;11.70;99.90;;;13.10;65.01;98985.47;4789557;29;20038;-82
2021/04/29 03:37:03;;;;;;;6.18;3.72;;;11.60;99.90;;;13.12;64.19;98989.47;4791540;29;20560;-82
2021/04/29 03:39:30;;;;;;;7.55;3.95;;;11.60;99.90;;;13.07;64.24;98989.06;4806150;29;20349;-83
2021/04/29 03:41:56;;;;;;;8.63;4.40;;;11.50;99.90;;;13.04;64.87;98989.91;4791310;29;20053;-83
2021/04/29 03:44:22;;;;;;;8.38;3.97;;;11.50;99.90;;;13.03;65.44;98994.75;4792474;29;20400;-82
2021/04/29 03:46:48;;;;;;;7.97;3.88;;;11.50;99.90;;;13.00;65.74;98994.78;4810814;29;20035;-80
2021/04/29 03:49:13;;;;;;;7.07;4.75;;;11.50;99.90;;;13.00;65.24;99003.19;4792629;29;20039;-84
2021/04/29 03:51:41;;;;;;;7.10;4.13;;;11.50;99.90;;;12.98;65.75;99006.38;4792270;29;20373;-85
2021/04/29 03:54:11;;;;;;;8.32;4.70;;;11.50;99.90;;;12.95;65.66;99003.59;4790908;29;20039;-85
2021/04/29 03:56:36;;;;;;;10.32;4.50;;;11.40;99.90;;;12.95;65.49;99000.81;4791702;29;20487;-84
2021/04/29 03:59:03;;;;;;;6.88;4.15;;;11.40;99.90;;;12.93;65.13;99000.44;4795570;29;20038;-85
2021/04/29 04:01:29;;;;;;;5.30;4.47;;;11.40;99.90;;;12.91;65.22;99000.84;4813443;29;20031;-85
2021/04/29 04:08:59;;;;;;;6.40;4.72;;;11.40;99.90;;;12.90;65.26;99002.06;4825468;29;20118;-87
2021/04/29 04:11:24;;;;;;;8.25;5.00;;;11.40;99.90;;;12.92;65.34;99007.22;4807661;29;20064;-84
2021/04/29 04:13:50;;;;;;;7.63;4.68;;;11.40;99.90;;;12.92;65.22;98996.84;4806924;29;20194;-85
2021/04/29 04:16:16;;;;;;;10.82;4.80;;;11.40;99.90;;;12.97;65.17;99007.59;4824583;29;20037;-86
2021/04/29 04:18:43;;;;;;;9.82;5.35;;;11.40;99.90;;;12.93;64.40;99004.03;4825140;29;20054;-87
2021/04/29 04:21:09;;;;;;;7.05;4.78;;;11.50;99.90;;;12.94;64.62;98997.19;4825955;29;20114;-82
2021/04/29 04:23:39;;;;;;;9.48;5.10;;;11.50;99.90;;;13.00;64.24;99003.19;4812738;29;20133;-84
2021/04/29 04:26:05;;;;;;;7.55;4.88;;;11.50;99.90;;;13.02;64.11;98995.94;4813010;29;20436;-85
2021/04/29 04:28:30;;;;;;;11.43;5.70;;;11.50;99.90;;;12.99;63.87;98993.16;4825386;29;20034;-87
2021/04/29 04:30:57;;;;;;;11.93;5.15;;;11.50;99.90;;;13.00;63.59;99001.16;4825546;29;20031;-88
2021/04/29 04:33:23;;;;;;;8.95;4.97;;;11.50;99.90;;;12.98;63.62;98994.38;4810518;29;20058;-86
2021/04/29 04:35:49;;;;;;;7.32;5.10;;;11.50;99.90;;;13.03;63.50;98996.75;4825981;29;20399;-86
2021/04/29 04:38:14;;;;;;;7.57;5.38;;;11.50;99.90;;;13.03;63.04;98996.75;4810742;29;20034;-88
2021/04/29 04:40:40;;;;;;;9.50;6.40;;;11.60;99.90;;;12.99;63.07;98993.16;4809993;29;20405;-87
2021/04/29 04:43:06;;;;;;;12.40;6.40;;;11.60;99.90;;;13.08;62.86;99007.50;4833699;29;20014;-86
2021/04/29 04:45:32;;;;;;;11.18;6.50;;;11.60;99.90;;;13.17;62.18;99008.63;4818246;29;20050;-83
2021/04/29 04:47:59;;;;;;;14.10;7.00;;;11.70;99.90;;;13.16;62.76;99011.88;4840161;29;20038;-83
2021/04/29 04:50:25;;;;;;;14.93;7.53;;;11.70;99.90;;;13.12;62.52;99011.91;4819800;29;20061;-81
2021/04/29 04:52:51;;;;;;;12.90;6.88;;;11.80;99.90;;;13.24;61.65;99021.00;4826008;29;20057;-82
2021/04/29 04:55:17;;;;;;;9.85;7.03;;;11.80;99.90;;;13.23;61.76;99022.22;4813582;29;20027;-82
2021/04/29 04:57:43;;;;;;;11.45;6.93;;;11.90;99.90;;;13.25;61.87;99025.41;4813998;29;20030;-82
2021/04/29 05:00:09;;;;;;;13.23;8.55;;;11.90;99.90;;;13.34;61.40;99032.09;4819474;29;20035;-85
2021/04/29 05:02:41;;;;;;;12.63;8.25;;;12.00;99.90;;;13.35;60.89;99038.50;4817890;29;20071;-86
2021/04/29 05:05:08;;;;;;;13.63;9.73;;;12.00;99.90;;;13.31;61.61;99038.53;4814578;29;20443;-86
2021/04/29 05:07:34;;;;;;;13.30;8.73;;;12.00;99.90;;;13.31;61.14;99038.53;4812334;29;20099;-84
2021/04/29 05:10:04;;;;;;;15.80;9.32;;;12.00;99.90;;;13.34;61.96;99037.72;4832148;29;20061;-81
2021/04/29 05:12:30;;;;;;;16.30;9.35;;;12.00;99.90;;;13.37;61.48;99047.28;4813436;29;20031;-84
2021/04/29 05:14:56;;;;;;;13.57;9.35;;;12.00;99.90;;;13.31;61.92;99046.97;4829345;29;20033;-82
2021/04/29 05:17:22;;;;;;;18.25;10.23;;;12.00;99.90;;;13.31;62.24;99046.16;4807705;29;20034;-84
2021/04/29 05:19:47;;;;;;;15.65;10.00;;;12.00;99.90;;;13.28;61.88;99047.78;4807853;29;20038;-84
2021/04/29 05:22:15;;;;;;;15.40;10.38;;;12.00;99.90;;;13.31;61.57;99054.56;4812796;29;20483;-83
2021/04/29 05:24:44;;;;;;;17.00;11.13;;;12.00;99.90;;;13.32;61.93;99058.97;4809526;29;20034;-84
2021/04/29 05:27:10;;;;;;;19.20;11.65;;;12.00;99.90;;;13.26;62.30;99058.59;4802587;29;20045;-84
2021/04/29 05:29:37;;;;;;;17.75;10.85;;;12.00;99.90;;;13.33;62.15;99066.16;4828570;29;20451;-84
2021/04/29 05:32:03;;;;;;;20.48;10.77;;;12.00;99.90;;;13.41;62.18;99062.09;4828303;29;20034;-82
2021/04/29 05:34:29;;;;;;;16.40;11.00;;;12.00;99.90;;;13.56;61.65;99058.72;4816522;29;20047;-84
2021/04/29 05:36:55;;;;;;;21.52;11.25;;;12.10;99.90;;;13.55;61.50;99064.75;4827637;29;20383;-84
2021/04/29 05:39:21;;;;;;;16.92;11.90;;;12.10;99.90;;;13.42;61.33;99066.50;4813927;29;20039;-83
2021/04/29 05:41:47;;;;;;;23.23;13.00;;;12.20;99.90;;;13.38;61.95;99068.53;4813045;29;20031;-84
2021/04/29 05:44:16;;;;;;;18.67;13.07;;;12.20;99.90;;;13.44;62.43;99064.06;4829582;29;20118;-83
2021/04/29 05:46:42;;;;;;;20.88;13.73;;;12.00;99.90;;;13.32;62.66;99065.38;4828423;29;20113;-82
2021/04/29 05:49:09;;;;;;;23.73;15.00;;;12.00;99.90;;;13.41;62.08;99064.91;4807001;29;20200;-86
2021/04/29 05:51:35;;;;;;;25.45;16.63;;;12.10;99.90;;;13.39;62.06;99064.53;4824996;29;20030;-86
2021/04/29 05:54:00;;;;;;;26.83;16.33;;;12.10;99.90;;;13.23;62.68;99069.88;4806478;29;20128;-84
2021/04/29 05:56:26;;;;;;;24.08;17.05;;;12.10;99.90;;;13.16;62.62;99068.69;4802329;29;20113;-83
2021/04/29 05:58:52;;;;;;;27.08;17.27;;;12.00;99.90;;;13.11;62.92;99069.16;4832515;29;20026;-83
2021/04/29 06:01:18;;;;;;;28.58;17.42;;;12.00;99.90;;;13.17;62.96;99080.72;4827438;29;20387;-85
2021/04/29 06:03:45;;;;;;;26.50;17.52;;;11.90;99.90;;;13.13;63.02;99080.75;4827470;29;20117;-83
2021/04/29 06:06:11;;;;;;;30.02;19.98;;;11.90;99.90;;;13.20;61.91;99077.88;4812507;29;20030;-83
2021/04/29 06:08:37;;;;;;;29.75;18.08;;;12.00;99.90;;;13.57;61.67;99076.34;4828567;29;20031;-84
2021/04/29 06:11:03;;;;;;;29.52;18.60;;;12.10;99.90;;;13.85;61.08;99084.47;4828425;29;20106;-84
2021/04/29 06:13:30;;;;;;;28.40;19.90;;;12.30;99.90;;;13.76;60.11;99074.94;4828050;29;20483;-84
2021/04/29 06:15:55;;;;;;;26.80;18.98;;;12.50;99.90;;;13.97;59.17;99085.94;4812682;29;20037;-84
2021/04/29 06:18:21;;;;;;;29.77;18.73;;;12.60;99.90;;;13.89;59.69;99076.81;4812291;29;20034;-85
2021/04/29 06:20:47;;;;;;;32.08;18.13;;;12.60;99.90;;;14.09;59.73;99085.41;4811857;29;20042;-84
2021/04/29 06:23:13;;;;;;;32.17;20.05;;;12.70;99.90;;;13.69;60.41;99078.63;4828503;29;20053;-82
2021/04/29 06:25:42;;;;;;;31.58;19.75;;;12.50;99.90;;;13.71;60.50;99093.81;4821587;29;20034;-80
2021/04/29 06:28:08;;;;;;;31.55;20.80;;;12.50;99.90;;;13.82;59.98;99088.09;4798591;29;20038;-82
2021/04/29 06:30:34;;;;;;;28.70;21.27;;;12.70;99.90;;;13.94;58.93;99083.97;4839113;29;20037;-84
2021/04/29 06:33:05;;;;;;;30.88;20.30;;;12.70;99.90;;;14.05;58.27;99091.06;4828724;29;20068;-80
2021/04/29 06:35:37;;;;;;;30.75;21.95;;;12.80;99.90;;;13.95;58.18;99093.97;4826500;29;20030;-82
2021/04/29 06:38:07;;;;;;;32.00;21.35;;;12.90;99.90;;;13.83;58.68;99095.31;4800903;29;20050;-81
2021/04/29 06:40:33;;;;;;;34.03;22.08;;;12.80;99.90;;;13.81;59.29;99094.13;4834009;29;20026;-82
2021/04/29 06:43:02;;;;;;;31.95;21.38;;;12.80;99.90;;;14.18;57.34;99085.69;4811262;29;20046;-84
2021/04/29 06:45:35;;;;;;;29.35;20.08;;;13.00;99.90;;;14.73;56.00;99091.81;4822351;29;20044;-82
2021/04/29 06:48:02;;;;;;;33.78;20.27;;;13.40;99.90;;;14.75;55.83;99089.34;4812825;29;20034;-85
2021/04/29 06:50:27;;;;;;;32.58;22.00;;;13.70;99.90;;;15.11;55.42;99092.41;4814157;29;20037;-85
2021/04/29 06:52:55;;;;;;;37.65;22.25;;;13.90;99.90;;;15.17;55.95;99098.34;4820644;29;20098;-84
2021/04/29 06:55:23;;;;;;;31.58;22.13;;;14.00;99.90;;;15.14;54.47;99102.81;4842041;29;20018;-82
2021/04/29 06:57:50;;;;;;;31.55;21.27;;;14.00;99.90;;;15.45;54.59;99102.69;4828818;29;20034;-85
2021/04/29 07:00:17;;;;;;;31.23;22.60;;;14.20;99.90;;;15.31;53.46;99118.59;4811536;29;20038;-84
2021/04/29 07:02:42;;;;;;;30.27;21.70;;;14.20;99.90;;;15.20;54.02;99114.38;4828388;29;20605;-85
2021/04/29 07:05:09;;;;;;;35.53;22.67;;;14.10;99.90;;;15.19;53.82;99104.34;4810987;29;20070;-84
2021/04/29 07:07:35;;;;;;;32.13;22.05;;;14.10;99.90;;;15.55;53.36;99121.44;4810870;29;20444;-84
2021/04/29 07:10:01;;;;;;;29.55;21.25;;;14.30;99.90;;;16.07;51.81;99114.06;4826876;29;20041;-86
2021/04/29 07:12:27;;;;;;;34.10;21.25;;;14.50;99.90;;;16.14;51.50;99113.91;4827346;29;20402;-83
2021/04/29 07:14:52;;;;;;;29.35;21.00;;;14.70;99.90;;;15.96;51.70;99115.50;4826687;29;20053;-82
2021/04/29 07:17:18;;;;;;;32.45;22.02;;;14.80;99.90;;;16.00;50.86;99117.00;4811214;29;20104;-86
2021/04/29 07:19:44;;;;;;;32.80;22.83;;;14.80;99.90;;;16.16;50.01;99125.53;4827309;29;20479;-85
2021/04/29 07:22:10;;;;;;;36.00;22.40;;;14.90;99.90;;;16.25;49.85;99134.19;4826176;29;20031;-82
2021/04/29 07:24:36;;;;;;;34.35;22.33;;;14.90;99.90;;;16.22;50.19;99131.44;4826338;29;20091;-82
2021/04/29 07:27:04;;;;;;;29.35;21.40;;;14.90;99.90;;;15.90;50.42;99134.88;4827957;29;20034;-83
2021/04/29 07:29:32;;;;;;;33.80;22.77;;;14.70;99.40;;;16.00;50.70;99152.81;4827030;29;20030;-82
2021/04/29 07:32:02;;;;;;;34.92;22.60;;;14.70;99.90;;;15.10;52.15;99132.19;4810913;29;20419;-83
2021/04/29 07:34:38;;;;;;;35.25;23.25;;;14.10;99.90;;;14.57;53.54;99147.00;4811235;29;20042;-84
2021/04/29 07:37:04;;;;;;;;;;;13.70;99.90;;;14.99;53.29;99146.44;4879626;23;20532;-80
2021/04/29 07:39:31;;;;;;;33.78;22.73;;;13.80;99.90;;;15.25;52.36;99154.03;4829488;29;19948;-82
2021/04/29 07:41:57;;;;;;;33.65;21.73;;;14.00;99.90;;;15.88;51.01;99156.25;4822147;29;20034;-81
2021/04/29 07:44:24;;;;;;;31.23;21.35;;;14.30;99.90;;;16.32;50.17;99148.16;4837163;29;20034;-82
2021/04/29 07:46:50;;;;;;;30.83;21.13;;;14.70;99.90;;;16.13;49.90;99160.19;4829300;29;20043;-82
2021/04/29 07:54:18;;;;;;;;;;;;;;;;;;;;;
2021/04/29 07:57:14;;;;;;;36.63;22.30;;;15.70;96.40;;;16.31;49.54;99149.38;4828522;29;20099;-82
2021/04/29 08:00:20;;;;;;;33.08;23.55;;;15.50;94.90;;;16.12;50.08;99157.78;4833016;29;20045;-81
2021/04/29 08:03:17;;;;;;;32.33;22.35;;;15.10;95.90;;;16.54;49.05;99150.53;4814353;29;20551;-81
2021/04/29 08:05:56;;;;;;;33.15;23.58;;;15.20;95.50;;;16.60;49.48;99146.03;4815561;29;20068;-81
2021/04/29 08:08:46;;;;;;;33.97;23.85;;;15.40;95.50;;;16.72;49.15;99160.25;4832512;29;20034;-78
2021/04/29 08:11:52;;;;;;;34.33;23.95;;;15.50;95.30;;;17.28;48.04;99154.53;4831240;29;20118;-82
2021/04/29 08:14:29;;;;;;;37.65;23.38;;;15.90;94.50;;;17.45;47.54;99163.81;4831088;29;20406;-81
2021/04/29 08:17:23;;;;;;;36.95;23.23;;;16.20;92.40;;;17.23;47.58;99167.16;4814621;29;20492;-81
2021/04/29 08:20:03;;;;;;;29.15;22.13;;;16.10;91.80;;;17.18;47.08;99164.03;4815122;29;20460;-81
2021/04/29 08:22:40;;;;;;;33.95;22.58;;;16.00;90.00;;;17.50;46.63;99174.59;4814671;29;20119;-80
2021/04/29 08:25:07;;;;;;;34.17;23.17;;;16.20;89.80;;;17.66;46.36;99177.44;4814940;29;20402;-83
2021/04/29 08:27:44;;;;;;;33.58;23.20;;;16.40;88.90;;;17.75;46.59;99177.63;4832736;29;20045;-81
2021/04/29 08:34:26;;;;;;;;;;;;;;;;;;;;;
2021/04/29 08:46:09;;;;;;;47.65;29.55;;;14.50;95.60;;;15.75;51.47;99212.38;4799824;30;20048;-82
2021/04/29 08:50:07;;;;;;;;;;;;;;;;;;;;;
2021/04/29 08:53:49;;;;;;;41.50;29.42;;;14.90;97.20;;;16.46;50.23;99202.63;4814849;29;20070;-80
2021/04/29 09:00:53;;;;;;;;;;;;;;;;;;;;;
2021/04/29 09:05:01;;;;;;;49.88;33.25;;;15.00;94.40;;;15.42;52.22;99222.50;4836292;29;20102;-81
2021/04/29 09:08:48;;;;;;;46.92;31.50;;;14.60;95.90;;;16.02;51.38;99224.34;4815046;29;20034;-80
2021/04/29 09:12:28;;;;;;;52.00;33.15;;;14.80;97.10;;;16.10;51.22;99227.84;4709281;30;20136;-82
2021/04/29 09:23:06;;;;;;;;;;;;;;;;;;;;;
2021/04/29 09:31:18;;;;;;;;;;;;;;;;;;;;;
2021/04/29 09:34:39;;;;;;;46.95;30.20;;;16.20;88.80;;;16.54;47.71;99235.06;4692123;30;20110;-81
2021/04/29 09:38:14;;;;;;;;;;;;;;;;;;;;;
2021/04/29 09:40:50;;;;;;;46.55;30.95;;;14.40;91.10;;;15.55;51.40;99229.16;4710721;30;20186;-82
2021/04/29 09:44:13;;;;;;;47.20;30.67;;;14.30;95.90;;;16.49;50.26;99239.19;4705661;30;20468;-79
2021/04/29 09:47:24;;;;;;;46.08;31.48;;;14.90;96.30;;;16.55;48.43;99229.03;4746017;30;20061;-82
2021/04/29 09:54:58;;;;;;;;;;;;;;;;;;;;;
2021/04/29 09:58:36;;;;;;;38.22;24.45;;;16.90;78.20;;;18.32;43.19;99234.22;4817267;29;20098;-81
2021/04/29 10:01:51;;;;;;;41.78;25.33;;;17.10;75.00;;;18.78;41.89;99224.47;4822353;29;20122;-81
2021/04/29 10:06:16;;;;;;;33.40;23.52;;;17.60;72.40;;;18.93;39.93;99210.72;4825644;29;20039;-81
2021/04/29 10:09:24;;;;;;;31.42;21.27;;;17.90;67.60;;;18.09;41.05;99219.50;4746695;30;20191;-83
2021/04/29 10:12:49;;;;;;;28.90;21.10;;;17.40;66.80;;;18.51;40.76;99218.41;4731303;30;20043;-81
2021/04/29 10:19:14;;;;;;;38.30;25.27;;;17.90;68.40;;;18.61;41.79;99225.78;4786743;29;20038;-79
2021/04/29 10:22:31;;;;;;;33.13;23.55;;;17.70;69.00;;;18.92;40.77;99226.09;4817749;29;20049;-82
2021/04/29 10:26:11;;;;;;;30.17;20.20;;;17.60;68.30;;;19.14;38.61;99226.25;4744252;30;20205;-82
2021/04/29 10:30:07;;;;;;;33.08;17.70;;;17.80;63.90;;;17.56;39.55;99229.31;4744024;30;20040;-82
2021/04/29 10:44:12;;;;;;;22.23;15.40;;;15.70;65.80;;;17.89;40.55;99228.06;4806530;29;20054;-82
2021/04/29 10:47:17;;;;;;;22.20;15.70;;;16.20;68.10;;;17.16;40.50;99226.56;4813235;29;20042;-81
2021/04/29 10:53:49;;;;;;;26.83;15.32;;;16.00;66.10;;;18.13;41.52;99226.66;4795315;30;20039;-80
2021/04/29 10:59:51;;;;;;;22.70;14.18;;;16.80;64.80;;;17.46;37.58;99213.38;4808871;29;20031;-80
2021/04/29 11:03:51;;;;;;;27.55;14.38;;;16.40;61.40;;;17.72;39.85;99224.44;4799658;29;20039;-81
2021/04/29 11:06:45;;;;;;;24.20;11.65;;;16.50;64.00;;;18.23;36.97;99230.44;4790011;29;20035;-80
2021/04/29 11:10:27;;;;;;;;;;;;;;;;;;;;;
2021/04/29 11:13:48;;;;;;;22.33;12.05;;;17.60;60.40;;;18.15;36.26;99223.38;4814704;29;20098;-82
2021/04/29 11:17:07;;;;;;;18.58;11.30;;;17.50;57.00;;;18.73;35.45;99219.38;4766868;29;20063;-81
2021/04/29 11:20:19;;;;;;;20.15;11.65;;;17.60;57.30;;;17.46;37.68;99213.38;4803232;29;20046;-83
2021/04/29 11:23:32;;;;;;;14.65;12.25;;;16.60;58.70;;;18.39;36.20;99224.75;4801021;29;20407;-82
2021/04/29 11:26:37;;;;;;;26.35;11.98;;;17.00;59.50;;;18.77;35.56;99220.06;4798596;29;20081;-82
2021/04/29 11:29:43;;;;;;;17.52;12.20;;;17.50;58.90;;;17.25;38.30;99223.94;4798746;29;20137;-79
2021/04/29 11:36:02;;;;;;;16.05;11.35;;;16.20;62.10;;;19.12;36.51;99206.91;4815822;29;20050;-81
2021/04/29 11:39:26;;;;;;;18.05;11.90;;;17.30;60.10;;;18.07;37.27;99216.34;4801838;29;20050;-81
2021/04/29 11:42:30;;;;;;;;;;;;;;;;;;;;;
2021/04/29 11:46:05;;;;;;;17.48;12.02;;;16.40;60.60;;;16.43;39.87;99229.66;4795331;29;20098;-81
2021/04/29 11:49:15;;;;;;;19.02;13.50;;;15.70;61.30;;;15.97;40.85;99235.31;4796384;29;20086;-81
2021/04/29 11:53:21;;;;;;;18.38;12.57;;;15.20;63.00;;;17.64;39.57;99251.28;4794606;29;20070;-81
2021/04/29 11:56:19;;;;;;;;;;;;;;;;;;;;;
2021/04/29 11:59:35;;;;;;;22.67;14.93;;;16.80;60.00;;;16.97;41.93;99254.78;4850183;29;20385;-82
2021/04/29 12:02:26;;;;;;;20.45;14.27;;;16.10;64.10;;;16.95;42.30;99268.53;4838641;29;20069;-82
2021/04/29 12:05:12;;;;;;;20.25;14.45;;;15.90;65.80;;;15.65;44.35;99280.88;4836752;29;20045;-80
2021/04/29 12:08:38;;;;;;;;;;;;;;;;;;;;;
2021/04/29 12:11:45;;;;;;;15.73;10.82;;;13.80;73.00;;;12.98;55.62;99320.25;4832983;29;20820;-80
2021/04/29 12:15:10;;;;;;;15.18;11.25;;;12.60;92.50;;;12.25;61.10;99332.41;4815164;29;20540;-81
2021/04/29 12:18:03;;;;;;;;;;;;;;;;;;;;;
2021/04/29 12:21:27;;;;;;;16.60;12.05;;;11.70;99.90;;;13.29;61.13;99349.41;4842409;29;20065;-81
2021/04/29 12:25:10;;;;;;;17.10;12.43;;;12.30;99.90;;;13.66;59.85;99348.78;4822465;29;20050;-80
2021/04/29 12:28:21;;;;;;;21.10;14.18;;;12.70;99.90;;;14.14;58.22;99346.03;4785572;29;20043;-81
2021/04/29 12:31:39;;;;;;;17.42;12.43;;;13.10;99.90;;;14.71;55.12;99341.50;4801435;29;20050;-81
2021/04/29 12:34:30;;;;;;;17.25;12.63;;;13.90;99.90;;;15.32;53.99;99348.03;4804223;29;20134;-82